createdAt,value
2023-12-20T00:04:58.487Z,8.60
2023-12-20T00:15:42.038Z,8.58
2023-12-20T00:20:59.063Z,8.57
2023-12-20T00:31:40.032Z,8.62
2023-12-20T00:36:56.306Z,8.62
2023-12-20T00:42:03.919Z,8.58
2023-12-20T00:47:56.557Z,8.64
2023-12-20T00:58:57.407Z,8.59
2023-12-20T01:04:05.180Z,8.53
2023-12-20T01:09:53.222Z,8.58
2023-12-20T01:15:00.953Z,8.50
2023-12-20T01:25:55.300Z,8.48
2023-12-20T01:31:02.929Z,8.43
2023-12-20T01:42:01.268Z,8.41
2023-12-20T01:52:49.527Z,8.38
2023-12-20T01:58:01.460Z,8.38
2023-12-20T02:08:58.797Z,8.41
2023-12-20T02:20:01.266Z,8.42
2023-12-20T02:25:57.310Z,8.39
2023-12-20T02:37:01.673Z,8.41
2023-12-20T02:48:03.388Z,8.35
2023-12-20T02:53:27.323Z,8.32
2023-12-20T02:58:54.320Z,8.32
2023-12-20T03:04:04.561Z,8.35
2023-12-20T03:10:05.683Z,8.43
2023-12-20T03:15:29.924Z,8.40
2023-12-20T03:20:59.036Z,8.45
2023-12-20T03:26:06.990Z,8.38
2023-12-20T03:31:59.566Z,8.45
2023-12-20T03:43:04.449Z,8.40
2023-12-20T03:49:01.097Z,8.45
2023-12-20T03:54:57.759Z,8.42
2023-12-20T04:00:29.720Z,8.36
2023-12-20T04:05:59.126Z,8.36
2023-12-20T04:11:07.268Z,8.32
2023-12-20T04:16:56.369Z,8.38
2023-12-20T04:22:04.016Z,8.27
2023-12-20T04:27:57.063Z,8.25
2023-12-20T04:33:48.380Z,8.23
2023-12-20T04:39:01.133Z,8.21
2023-12-20T04:50:04.184Z,8.18
2023-12-20T04:56:00.593Z,8.18
2023-12-20T05:07:06.614Z,8.13
2023-12-20T05:12:57.209Z,8.12
2023-12-20T05:18:04.870Z,8.03
2023-12-20T05:23:55.924Z,8.11
2023-12-20T05:29:03.463Z,8.03
2023-12-20T05:39:47.645Z,8.07
2023-12-20T05:45:01.006Z,8.08
2023-12-20T05:56:02.786Z,8.09
2023-12-20T06:07:01.033Z,8.05
2023-12-20T06:12:59.005Z,8.00
2023-12-20T06:18:09.489Z,7.98
2023-12-20T06:23:17.079Z,7.98
2023-12-20T06:28:27.319Z,7.98
2023-12-20T06:40:39.616Z,8.05
2023-12-20T06:53:26.888Z,8.02
2023-12-20T07:06:04.425Z,8.01
2023-12-20T07:11:38.557Z,7.97
2023-12-20T07:16:53.182Z,7.93
2023-12-20T07:28:58.224Z,7.99
2023-12-20T07:34:38.090Z,7.97
2023-12-20T07:40:14.586Z,7.94
2023-12-20T07:46:42.534Z,8.01
2023-12-20T07:53:26.286Z,8.01
2023-12-20T08:09:19.946Z,8.01
2023-12-20T08:13:34.932Z,7.98
2023-12-20T08:26:36.969Z,7.97
2023-12-20T08:44:42.102Z,7.98
2023-12-20T08:50:21.422Z,7.97
2023-12-20T08:57:12.432Z,7.98
2023-12-20T09:02:59.494Z,7.96
2023-12-20T09:08:23.198Z,7.86
2023-12-20T09:14:13.390Z,7.83
2023-12-20T09:19:58.950Z,7.80
2023-12-20T09:25:19.799Z,7.69
2023-12-20T09:30:47.631Z,7.68
2023-12-20T09:35:55.525Z,7.64
2023-12-20T09:41:09.790Z,7.67
2023-12-20T09:46:43.968Z,7.75
2023-12-20T09:51:56.734Z,7.76
2023-12-20T09:57:15.849Z,7.87
2023-12-20T10:02:35.568Z,7.88
2023-12-20T10:07:59.056Z,7.90
2023-12-20T10:13:20.835Z,7.86
2023-12-20T10:18:40.852Z,7.89
2023-12-20T10:23:54.861Z,7.88
2023-12-20T10:29:16.281Z,7.93
2023-12-20T10:34:28.029Z,7.99
2023-12-20T10:39:40.887Z,8.03
2023-12-20T10:44:53.772Z,8.06
2023-12-20T10:50:32.364Z,8.14
2023-12-20T10:55:51.485Z,8.11
2023-12-20T11:01:42.101Z,8.16
2023-12-20T11:07:39.319Z,8.17
2023-12-20T11:13:06.374Z,8.17
2023-12-20T11:18:32.998Z,8.15
2023-12-20T11:24:13.546Z,8.18
2023-12-20T11:29:52.696Z,8.21
2023-12-20T11:35:24.184Z,8.21
2023-12-20T11:40:43.429Z,8.21
2023-12-20T11:46:22.587Z,8.26
2023-12-20T11:51:30.201Z,8.19
2023-12-20T11:56:37.817Z,8.17
2023-12-20T12:07:38.766Z,8.18
2023-12-20T12:13:04.991Z,8.21
2023-12-20T12:19:03.449Z,8.16
2023-12-20T12:24:57.183Z,8.15
2023-12-20T12:30:05.809Z,8.10
2023-12-20T12:41:51.061Z,8.18
2023-12-20T12:46:58.785Z,8.15
2023-12-20T12:52:07.052Z,8.17
2023-12-20T12:57:54.376Z,8.25
2023-12-20T13:03:57.456Z,8.31
2023-12-20T13:09:14.868Z,8.32
2023-12-20T13:15:15.570Z,8.36
2023-12-20T13:21:02.564Z,8.39
2023-12-20T13:46:18.629Z,8.42
2023-12-20T14:15:19.737Z,8.41
2023-12-20T14:23:50.331Z,8.28
2023-12-20T14:29:18.689Z,8.25
2023-12-20T14:34:59.220Z,8.22
2023-12-20T14:46:58.073Z,8.07
2023-12-20T14:53:06.983Z,8.01
2023-12-20T14:58:44.495Z,7.89
2023-12-20T15:03:58.069Z,7.83
2023-12-20T15:14:51.252Z,7.76
2023-12-20T15:26:05.508Z,7.70
2023-12-20T15:37:11.742Z,7.64
2023-12-20T15:42:19.265Z,7.56
2023-12-20T15:48:08.481Z,7.57
2023-12-20T15:54:07.212Z,7.55
2023-12-20T16:12:34.986Z,7.44
2023-12-20T16:36:30.004Z,7.33
2023-12-20T17:00:53.324Z,7.29
2023-12-20T18:28:32.062Z,7.05
2023-12-20T18:34:37.470Z,7.09
2023-12-20T19:11:33.164Z,7.22
2023-12-20T19:30:07.388Z,7.19
2023-12-20T19:36:18.224Z,7.17
2023-12-20T19:42:31.195Z,7.20
2023-12-20T19:48:42.224Z,7.20
2023-12-20T19:54:40.660Z,7.19
2023-12-20T20:07:15.591Z,7.17
2023-12-20T20:57:50.297Z,7.17
2023-12-20T21:48:59.796Z,7.29
2023-12-20T23:07:07.890Z,7.49
2023-12-20T23:18:07.265Z,7.53
2023-12-20T23:24:02.243Z,7.56
2023-12-20T23:29:55.427Z,7.58
2023-12-20T23:35:15.693Z,7.58
2023-12-20T23:41:03.608Z,7.62
2023-12-20T23:52:03.676Z,7.66
